Time;durP1;ratioP1;P1;durP2;ratioP2;P2;SDS_P1;SDS_P2;PMS_P1;PMS_P2;Temp;Humidity;BMP_temperature;BMP_pressure;BME280_temperature;BME280_humidity;BME280_pressure;Samples;Min_cycle;Max_cycle;Signal;HPM_P1;HPM_P2
2022/01/20 00:02:17;;;;;;;1.30;0.77;;;;;;;;;;6204378;23;20822;-40
2022/01/20 00:07:43;;;;;;;1.90;0.75;;;;;;;;;;6150505;23;20418;-41
2022/01/20 00:26:29;;;;;;;2.00;1.20;;;;;;;;;;6206833;23;20055;-41
2022/01/20 00:28:59;;;;;;;1.13;1.02;;;;;;;;;;6207513;23;20088;-40
2022/01/20 00:31:38;;;;;;;1.45;0.90;;;;;;;;;;6205840;23;20339;-41
2022/01/20 00:34:31;;;;;;;1.80;1.00;;;;;;;;;;6207294;23;20012;-41
2022/01/20 00:37:16;;;;;;;0.88;0.88;;;;;;;;;;6186781;23;20319;-40
2022/01/20 00:39:41;;;;;;;1.63;1.10;;;;;;;;;;6177550;23;20040;-40
2022/01/20 00:42:08;;;;;;;1.75;0.93;;;;;;;;;;6200699;23;20021;-41
2022/01/20 00:44:33;;;;;;;1.08;0.82;;;;;;;;;;6207600;23;20035;-41
2022/01/20 00:46:58;;;;;;;0.70;0.60;;;;;;;;;;6208772;23;20013;-40
2022/01/20 00:49:24;;;;;;;0.88;0.80;;;;;;;;;;6208846;23;20025;-41
2022/01/20 00:51:49;;;;;;;1.23;0.90;;;;;;;;;;6208429;23;20086;-42
2022/01/20 00:54:14;;;;;;;0.68;0.68;;;;;;;;;;6208808;23;20009;-44
2022/01/20 00:56:39;;;;;;;0.70;0.70;;;;;;;;;;6209153;23;20066;-40
2022/01/20 00:59:05;;;;;;;2.30;1.00;;;;;;;;;;6209078;23;20005;-41
2022/01/20 01:01:30;;;;;;;2.05;1.20;;;;;;;;;;6208078;23;20043;-41
2022/01/20 01:03:55;;;;;;;1.15;1.05;;;;;;;;;;6209116;23;20326;-41
2022/01/20 01:06:37;;;;;;;1.50;1.08;;;;;;;;;;6208280;23;20355;-41
2022/01/20 01:09:03;;;;;;;1.38;0.90;;;;;;;;;;6209206;23;20059;-42
2022/01/20 01:11:29;;;;;;;2.03;0.85;;;;;;;;;;6208105;23;20111;-40
2022/01/20 01:13:56;;;;;;;2.72;0.80;;;;;;;;;;6209785;23;20696;-41
2022/01/20 01:16:25;;;;;;;1.02;0.80;;;;;;;;;;6207993;23;20083;-40
2022/01/20 01:21:44;;;;;;;1.60;1.00;;;;;;;;;;6152852;23;20020;-42
2022/01/20 01:24:10;;;;;;;2.10;1.38;;;;;;;;;;6208238;23;20088;-41
2022/01/20 01:26:35;;;;;;;1.83;0.90;;;;;;;;;;6208818;23;20028;-40
2022/01/20 01:29:04;;;;;;;2.35;0.90;;;;;;;;;;6209004;23;20017;-40
2022/01/20 01:31:38;;;;;;;0.95;0.70;;;;;;;;;;6207474;23;20015;-43
2022/01/20 01:34:08;;;;;;;0.95;0.85;;;;;;;;;;6208980;23;20051;-43
2022/01/20 01:36:51;;;;;;;0.98;0.80;;;;;;;;;;6209053;23;20015;-41
2022/01/20 01:39:17;;;;;;;1.08;0.77;;;;;;;;;;6208484;23;20031;-40
2022/01/20 01:41:44;;;;;;;1.00;0.95;;;;;;;;;;6208579;23;20016;-41
2022/01/20 01:44:10;;;;;;;2.90;0.98;;;;;;;;;;6207992;23;20013;-41
2022/01/20 01:46:36;;;;;;;1.02;0.90;;;;;;;;;;6208456;23;20056;-40
2022/01/20 01:49:02;;;;;;;0.60;0.60;;;;;;;;;;6210650;23;20009;-42
2022/01/20 01:51:28;;;;;;;1.55;0.90;;;;;;;;;;6208921;23;20064;-44
2022/01/20 01:53:53;;;;;;;2.17;0.93;;;;;;;;;;6210902;23;20497;-44
2022/01/20 01:56:18;;;;;;;1.48;1.10;;;;;;;;;;6208205;23;20016;-43
2022/01/20 01:58:44;;;;;;;1.65;0.77;;;;;;;;;;6209763;23;20351;-41
2022/01/20 02:01:09;;;;;;;0.82;0.70;;;;;;;;;;6207400;23;20094;-42
2022/01/20 02:03:43;;;;;;;1.10;0.90;;;;;;;;;;6207293;23;20020;-41
2022/01/20 02:08:56;;;;;;;1.15;1.02;;;;;;;;;;6207972;23;20431;-42
2022/01/20 02:19:33;;;;;;;1.25;0.70;;;;;;;;;;6207808;23;20104;-41
2022/01/20 02:22:02;;;;;;;1.25;0.95;;;;;;;;;;6207744;23;20037;-41
2022/01/20 02:24:28;;;;;;;2.47;1.00;;;;;;;;;;6207113;23;20012;-40
2022/01/20 02:26:54;;;;;;;1.10;0.82;;;;;;;;;;6208265;23;20008;-41
2022/01/20 02:29:19;;;;;;;2.28;0.90;;;;;;;;;;6207691;23;20296;-40
2022/01/20 02:31:44;;;;;;;1.30;0.90;;;;;;;;;;6208207;23;20553;-42
2022/01/20 02:34:11;;;;;;;0.80;0.80;;;;;;;;;;6207925;23;20023;-43
2022/01/20 02:36:38;;;;;;;1.00;0.73;;;;;;;;;;6208107;23;20375;-41
2022/01/20 02:39:23;;;;;;;2.08;1.33;;;;;;;;;;6159291;23;20656;-40
2022/01/20 02:47:19;;;;;;;2.08;0.95;;;;;;;;;;6207832;23;20474;-42
2022/01/20 02:49:44;;;;;;;1.80;1.23;;;;;;;;;;6207563;23;20009;-41
2022/01/20 02:52:10;;;;;;;0.90;0.77;;;;;;;;;;6208429;23;20067;-40
2022/01/20 02:54:35;;;;;;;0.70;0.70;;;;;;;;;;6206704;23;20004;-41
2022/01/20 02:57:01;;;;;;;2.00;0.90;;;;;;;;;;6208292;23;20013;-41
2022/01/20 02:59:27;;;;;;;1.88;1.10;;;;;;;;;;6206895;23;20031;-41
2022/01/20 03:01:53;;;;;;;0.57;0.57;;;;;;;;;;6207873;23;20016;-41
2022/01/20 03:04:20;;;;;;;1.20;0.90;;;;;;;;;;6206685;23;20376;-40
2022/01/20 03:06:45;;;;;;;2.10;0.90;;;;;;;;;;6207797;23;20508;-41
2022/01/20 03:09:10;;;;;;;1.05;0.95;;;;;;;;;;6207461;23;20016;-40
2022/01/20 03:11:36;;;;;;;3.63;1.25;;;;;;;;;;6207628;23;20001;-41
2022/01/20 03:14:01;;;;;;;0.73;0.65;;;;;;;;;;6207892;23;20020;-40
2022/01/20 03:16:26;;;;;;;0.88;0.70;;;;;;;;;;6207308;23;20043;-40
2022/01/20 03:18:52;;;;;;;2.88;1.35;;;;;;;;;;6207473;23;20004;-40
2022/01/20 03:21:17;;;;;;;1.33;1.02;;;;;;;;;;6206871;23;20366;-40
2022/01/20 03:23:42;;;;;;;3.60;1.38;;;;;;;;;;6207425;23;20013;-40
2022/01/20 03:26:08;;;;;;;1.20;1.10;;;;;;;;;;6207385;23;20454;-41
2022/01/20 03:28:33;;;;;;;2.05;1.65;;;;;;;;;;6207123;23;20088;-41
2022/01/20 03:30:58;;;;;;;2.53;1.05;;;;;;;;;;6207326;23;20012;-41
2022/01/20 03:33:23;;;;;;;1.00;0.65;;;;;;;;;;6206893;23;20028;-41
2022/01/20 03:35:51;;;;;;;1.25;0.85;;;;;;;;;;6208246;23;20643;-41
2022/01/20 03:38:17;;;;;;;0.90;0.90;;;;;;;;;;6206804;23;20667;-41
2022/01/20 03:40:42;;;;;;;1.75;1.50;;;;;;;;;;6207319;23;20086;-41
2022/01/20 03:43:07;;;;;;;1.23;0.80;;;;;;;;;;6207048;23;20423;-40
2022/01/20 03:45:33;;;;;;;3.47;1.00;;;;;;;;;;6206687;23;20008;-41
2022/01/20 03:48:07;;;;;;;2.10;1.30;;;;;;;;;;6207047;23;20015;-41
2022/01/20 03:53:16;;;;;;;1.85;0.85;;;;;;;;;;6207288;23;20027;-40
2022/01/20 03:55:41;;;;;;;0.88;0.80;;;;;;;;;;6206937;23;20001;-40
2022/01/20 03:58:07;;;;;;;1.60;0.70;;;;;;;;;;6207703;23;20013;-40
2022/01/20 04:00:33;;;;;;;0.77;0.70;;;;;;;;;;6205565;23;20016;-40
2022/01/20 04:02:58;;;;;;;1.83;1.20;;;;;;;;;;6207377;23;20336;-40
2022/01/20 04:05:23;;;;;;;1.60;0.93;;;;;;;;;;6206632;23;20012;-40
2022/01/20 04:07:48;;;;;;;4.55;0.80;;;;;;;;;;6206805;23;20012;-40
2022/01/20 04:10:14;;;;;;;1.42;0.73;;;;;;;;;;6206931;23;20024;-41
2022/01/20 04:12:39;;;;;;;1.83;1.15;;;;;;;;;;6206865;23;20000;-40
2022/01/20 04:15:08;;;;;;;1.92;0.85;;;;;;;;;;6207794;23;20096;-40
2022/01/20 04:17:35;;;;;;;1.93;1.23;;;;;;;;;;6206520;23;20412;-40
2022/01/20 04:20:02;;;;;;;1.05;0.93;;;;;;;;;;6206658;23;20284;-42
2022/01/20 04:22:28;;;;;;;2.08;0.80;;;;;;;;;;6205916;23;20044;-41
2022/01/20 04:24:53;;;;;;;1.15;1.05;;;;;;;;;;6207453;23;20777;-41
2022/01/20 04:27:18;;;;;;;1.63;0.82;;;;;;;;;;6206858;23;20323;-42
2022/01/20 04:29:44;;;;;;;1.85;1.15;;;;;;;;;;6207640;23;20028;-40
2022/01/20 04:32:09;;;;;;;1.65;0.90;;;;;;;;;;6206930;23;20312;-41
2022/01/20 04:34:34;;;;;;;1.00;0.80;;;;;;;;;;6205937;23;20009;-42
2022/01/20 04:37:03;;;;;;;1.75;0.90;;;;;;;;;;6206960;23;20016;-40
2022/01/20 04:39:31;;;;;;;1.50;1.10;;;;;;;;;;6206723;23;20013;-40
2022/01/20 04:41:56;;;;;;;0.88;0.88;;;;;;;;;;6206050;23;20013;-40
2022/01/20 04:44:44;;;;;;;1.88;1.00;;;;;;;;;;6207198;23;20799;-41
2022/01/20 04:57:52;;;;;;;0.98;0.90;;;;;;;;;;6184116;23;20024;-41
2022/01/20 05:00:17;;;;;;;1.58;1.00;;;;;;;;;;6207102;23;20379;-40
2022/01/20 05:02:42;;;;;;;0.73;0.73;;;;;;;;;;6206759;23;20039;-40
2022/01/20 05:05:09;;;;;;;0.68;0.60;;;;;;;;;;6207087;23;20025;-41
2022/01/20 05:07:35;;;;;;;0.73;0.70;;;;;;;;;;6206430;23;20090;-40
2022/01/20 05:10:00;;;;;;;1.50;0.95;;;;;;;;;;6206921;23;20044;-41
2022/01/20 05:12:37;;;;;;;1.10;0.98;;;;;;;;;;6206601;23;20366;-41
2022/01/20 05:15:02;;;;;;;1.23;0.80;;;;;;;;;;6207064;23;20005;-40
2022/01/20 05:17:27;;;;;;;3.42;1.15;;;;;;;;;;6206192;23;20093;-42
2022/01/20 05:19:53;;;;;;;2.10;0.90;;;;;;;;;;6207428;23;20009;-40
2022/01/20 05:22:18;;;;;;;2.47;1.55;;;;;;;;;;6203766;23;20025;-40
2022/01/20 05:24:43;;;;;;;1.65;1.15;;;;;;;;;;6207136;23;20015;-41
2022/01/20 05:27:08;;;;;;;3.75;1.20;;;;;;;;;;6206445;23;20013;-40
2022/01/20 05:29:34;;;;;;;0.80;0.80;;;;;;;;;;6206675;23;20099;-40
2022/01/20 05:31:59;;;;;;;1.10;1.00;;;;;;;;;;6208161;23;20011;-41
2022/01/20 05:34:24;;;;;;;2.65;1.38;;;;;;;;;;6208494;23;20012;-42
2022/01/20 05:36:50;;;;;;;1.40;1.00;;;;;;;;;;6208861;23;20032;-41
2022/01/20 05:39:15;;;;;;;2.38;1.20;;;;;;;;;;6208221;23;20095;-42
2022/01/20 05:41:40;;;;;;;3.90;1.10;;;;;;;;;;6208368;23;20017;-42
2022/01/20 05:44:06;;;;;;;0.85;0.85;;;;;;;;;;6208873;23;20327;-40
2022/01/20 05:46:42;;;;;;;1.88;1.70;;;;;;;;;;6207645;23;20008;-40
2022/01/20 05:49:10;;;;;;;2.50;1.27;;;;;;;;;;6208715;23;20611;-40
2022/01/20 05:51:37;;;;;;;1.63;1.50;;;;;;;;;;6207048;23;20466;-41
2022/01/20 05:54:02;;;;;;;1.45;1.23;;;;;;;;;;6182265;23;20091;-40
2022/01/20 05:56:27;;;;;;;1.33;1.00;;;;;;;;;;6207872;23;20099;-41
2022/01/20 05:58:53;;;;;;;2.25;1.20;;;;;;;;;;6208265;23;20012;-40
2022/01/20 06:01:18;;;;;;;2.13;1.17;;;;;;;;;;6207775;23;20225;-40
2022/01/20 06:03:43;;;;;;;2.13;1.30;;;;;;;;;;6208551;23;20011;-42
2022/01/20 06:06:10;;;;;;;1.20;1.10;;;;;;;;;;6208168;23;20092;-40
2022/01/20 06:08:36;;;;;;;1.05;0.90;;;;;;;;;;6208338;23;20027;-40
2022/01/20 06:11:03;;;;;;;0.90;0.90;;;;;;;;;;6208082;23;20043;-40
2022/01/20 06:13:28;;;;;;;0.80;0.80;;;;;;;;;;6208477;23;20017;-40
2022/01/20 06:15:54;;;;;;;2.28;1.45;;;;;;;;;;6207811;23;20012;-40
2022/01/20 06:18:19;;;;;;;2.55;1.42;;;;;;;;;;6207940;23;20011;-41
2022/01/20 06:20:45;;;;;;;1.23;0.88;;;;;;;;;;6208292;23;20008;-40
2022/01/20 06:23:10;;;;;;;1.02;0.90;;;;;;;;;;6208863;23;20016;-40
2022/01/20 06:25:36;;;;;;;1.15;1.05;;;;;;;;;;6207357;23;20008;-40
2022/01/20 06:28:02;;;;;;;1.80;1.40;;;;;;;;;;6208444;23;20047;-42
2022/01/20 06:30:27;;;;;;;1.25;1.10;;;;;;;;;;6207169;23;20013;-43
2022/01/20 06:32:53;;;;;;;2.35;1.23;;;;;;;;;;6209880;23;20081;-41
2022/01/20 06:35:18;;;;;;;1.30;1.20;;;;;;;;;;6208548;23;20319;-40
2022/01/20 06:37:43;;;;;;;2.10;1.40;;;;;;;;;;6209594;23;20013;-42
2022/01/20 06:40:09;;;;;;;1.05;0.95;;;;;;;;;;6208702;23;20697;-42
2022/01/20 06:42:35;;;;;;;2.42;1.42;;;;;;;;;;6208975;23;20021;-40
2022/01/20 06:45:00;;;;;;;1.70;1.25;;;;;;;;;;6209029;23;20012;-41
2022/01/20 06:47:25;;;;;;;2.67;1.40;;;;;;;;;;6208895;23;20005;-41
2022/01/20 06:49:51;;;;;;;2.15;1.70;;;;;;;;;;6208732;23;20009;-41
2022/01/20 06:52:16;;;;;;;1.27;1.00;;;;;;;;;;6208535;23;20035;-41
2022/01/20 06:54:42;;;;;;;1.23;1.13;;;;;;;;;;6209340;23;20012;-42
2022/01/20 06:57:07;;;;;;;1.15;1.15;;;;;;;;;;6209089;23;20008;-42
2022/01/20 06:59:32;;;;;;;3.42;1.55;;;;;;;;;;6207412;23;20008;-41
2022/01/20 07:01:57;;;;;;;2.35;1.55;;;;;;;;;;6208159;23;20060;-40
2022/01/20 07:04:23;;;;;;;2.20;1.50;;;;;;;;;;6207232;23;20012;-42
2022/01/20 07:06:49;;;;;;;1.63;1.40;;;;;;;;;;6208354;23;20008;-40
2022/01/20 07:09:14;;;;;;;2.83;1.38;;;;;;;;;;6207079;23;20013;-40
2022/01/20 07:11:40;;;;;;;2.28;1.27;;;;;;;;;;6207851;23;20047;-43
2022/01/20 07:14:06;;;;;;;1.25;1.15;;;;;;;;;;6207594;23;20438;-41
2022/01/20 07:16:31;;;;;;;2.13;1.60;;;;;;;;;;6207368;23;20098;-42
2022/01/20 07:18:57;;;;;;;1.58;1.48;;;;;;;;;;6207778;23;20012;-43
2022/01/20 07:21:22;;;;;;;1.63;1.10;;;;;;;;;;6206806;23;20031;-42
2022/01/20 07:23:48;;;;;;;1.95;1.63;;;;;;;;;;6207106;23;20071;-40
2022/01/20 07:26:13;;;;;;;1.20;1.10;;;;;;;;;;6207505;23;20012;-41
2022/01/20 07:28:38;;;;;;;1.92;1.33;;;;;;;;;;6207079;23;20016;-42
2022/01/20 07:31:04;;;;;;;3.10;1.73;;;;;;;;;;6207329;23;20017;-41
2022/01/20 07:33:29;;;;;;;2.47;1.40;;;;;;;;;;6206687;23;20013;-41
2022/01/20 07:35:54;;;;;;;1.20;1.10;;;;;;;;;;6208145;23;20020;-40
2022/01/20 07:38:20;;;;;;;1.63;1.50;;;;;;;;;;6206598;23;20012;-40
2022/01/20 07:40:45;;;;;;;3.17;1.67;;;;;;;;;;6207390;23;20365;-41
2022/01/20 07:43:10;;;;;;;3.85;1.77;;;;;;;;;;6206869;23;20019;-41
2022/01/20 07:45:36;;;;;;;2.20;1.50;;;;;;;;;;6207165;23;20013;-40
2022/01/20 07:48:01;;;;;;;2.15;1.55;;;;;;;;;;6205389;23;20009;-41
2022/01/20 07:50:27;;;;;;;2.03;1.35;;;;;;;;;;6206404;23;20706;-42
2022/01/20 07:52:52;;;;;;;2.58;1.52;;;;;;;;;;6160260;23;20009;-40
2022/01/20 07:55:17;;;;;;;2.50;1.88;;;;;;;;;;6201710;23;20043;-40
2022/01/20 07:57:43;;;;;;;2.95;1.55;;;;;;;;;;6206146;23;20020;-41
2022/01/20 08:00:08;;;;;;;2.97;1.80;;;;;;;;;;6206655;23;20068;-40
2022/01/20 08:02:34;;;;;;;2.67;1.40;;;;;;;;;;6206355;23;20021;-41
2022/01/20 08:04:59;;;;;;;1.80;1.70;;;;;;;;;;6206978;23;20008;-40
2022/01/20 08:07:25;;;;;;;3.50;2.00;;;;;;;;;;6206283;23;20016;-41
2022/01/20 08:09:56;;;;;;;4.35;2.03;;;;;;;;;;6207515;23;20047;-42
2022/01/20 08:12:22;;;;;;;4.00;2.17;;;;;;;;;;6206609;23;20384;-41
2022/01/20 08:14:47;;;;;;;4.68;1.85;;;;;;;;;;6207105;23;20729;-40
2022/01/20 08:17:13;;;;;;;2.25;2.05;;;;;;;;;;6206711;23;20072;-42
2022/01/20 08:19:38;;;;;;;2.85;1.83;;;;;;;;;;6206756;23;20017;-40
2022/01/20 08:22:03;;;;;;;3.80;1.65;;;;;;;;;;6207046;23;20413;-40
2022/01/20 08:24:28;;;;;;;2.58;1.80;;;;;;;;;;6206749;23;20485;-40
2022/01/20 08:26:54;;;;;;;2.60;2.40;;;;;;;;;;6207247;23;20048;-41
2022/01/20 08:29:19;;;;;;;2.50;1.88;;;;;;;;;;6206495;23;20378;-40
2022/01/20 08:31:44;;;;;;;2.88;1.85;;;;;;;;;;6207289;23;20016;-41
2022/01/20 08:34:09;;;;;;;3.50;2.05;;;;;;;;;;6207015;23;20096;-40
2022/01/20 08:36:35;;;;;;;3.22;2.15;;;;;;;;;;6206907;23;20035;-40
2022/01/20 08:39:00;;;;;;;2.33;1.80;;;;;;;;;;6206880;23;20004;-40
2022/01/20 08:41:25;;;;;;;2.03;1.77;;;;;;;;;;6206683;23;20060;-40
2022/01/20 08:43:50;;;;;;;5.00;2.33;;;;;;;;;;6207044;23;20013;-40
2022/01/20 08:46:19;;;;;;;3.90;2.17;;;;;;;;;;6205374;23;20047;-40
2022/01/20 08:48:45;;;;;;;5.18;3.17;;;;;;;;;;6207190;23;20461;-40
2022/01/20 08:51:10;;;;;;;2.53;2.28;;;;;;;;;;6203958;23;20020;-41
2022/01/20 08:53:36;;;;;;;4.18;2.92;;;;;;;;;;6204928;23;20017;-42
2022/01/20 08:56:01;;;;;;;3.80;2.72;;;;;;;;;;6204339;23;20083;-40
2022/01/20 08:58:26;;;;;;;2.47;2.00;;;;;;;;;;6202798;23;20517;-41
2022/01/20 09:00:52;;;;;;;2.33;2.13;;;;;;;;;;6197763;23;20084;-41
2022/01/20 09:03:17;;;;;;;3.67;2.10;;;;;;;;;;6200991;23;20020;-40
2022/01/20 09:05:42;;;;;;;2.97;1.92;;;;;;;;;;6203032;23;20004;-41
2022/01/20 09:08:08;;;;;;;2.38;1.90;;;;;;;;;;6203438;23;20047;-41
2022/01/20 09:10:38;;;;;;;1.70;1.60;;;;;;;;;;6204296;23;20021;-41
2022/01/20 09:15:48;;;;;;;3.92;1.80;;;;;;;;;;6203201;23;19958;-40
2022/01/20 09:18:13;;;;;;;2.45;1.90;;;;;;;;;;6204511;23;20346;-40
2022/01/20 09:20:38;;;;;;;4.10;2.10;;;;;;;;;;6202990;23;20013;-41
2022/01/20 09:23:04;;;;;;;1.70;1.45;;;;;;;;;;6202899;23;20028;-41
2022/01/20 09:25:29;;;;;;;3.28;2.00;;;;;;;;;;6203279;23;20016;-42
2022/01/20 09:27:55;;;;;;;2.38;2.17;;;;;;;;;;6204852;23;20020;-41
2022/01/20 09:30:22;;;;;;;1.88;1.30;;;;;;;;;;6201789;23;21002;-41
2022/01/20 09:35:45;;;;;;;3.95;2.13;;;;;;;;;;6152776;23;20005;-42
2022/01/20 09:38:11;;;;;;;3.05;1.90;;;;;;;;;;6204460;23;20021;-42
2022/01/20 09:40:37;;;;;;;3.92;1.80;;;;;;;;;;6203814;23;20016;-43
2022/01/20 09:43:03;;;;;;;2.53;1.77;;;;;;;;;;6203555;23;20159;-41
2022/01/20 09:45:28;;;;;;;3.78;1.60;;;;;;;;;;6203908;23;20023;-40
2022/01/20 09:47:54;;;;;;;2.92;1.40;;;;;;;;;;6203210;23;20371;-44
2022/01/20 09:50:20;;;;;;;1.85;1.20;;;;;;;;;;6204157;23;20447;-40
2022/01/20 09:52:46;;;;;;;2.00;1.40;;;;;;;;;;6203870;23;20036;-40
2022/01/20 09:55:11;;;;;;;1.50;1.10;;;;;;;;;;6204006;23;20427;-41
2022/01/20 09:57:37;;;;;;;3.47;1.10;;;;;;;;;;6202872;23;20005;-40
2022/01/20 10:00:04;;;;;;;2.85;1.50;;;;;;;;;;6202763;23;20047;-40
2022/01/20 10:02:30;;;;;;;4.20;2.65;;;;;;;;;;6203253;23;20029;-41
2022/01/20 10:04:56;;;;;;;3.75;1.67;;;;;;;;;;6203110;23;20020;-41
2022/01/20 10:07:22;;;;;;;4.10;1.25;;;;;;;;;;6203641;23;20012;-41
2022/01/20 10:09:49;;;;;;;1.40;1.05;;;;;;;;;;6203487;23;20322;-41
2022/01/20 10:12:16;;;;;;;1.75;1.13;;;;;;;;;;6203796;23;20013;-41
2022/01/20 10:14:49;;;;;;;2.25;1.42;;;;;;;;;;6204664;23;20015;-41
2022/01/20 10:17:19;;;;;;;2.22;1.83;;;;;;;;;;6201558;23;20013;-40
2022/01/20 10:19:45;;;;;;;3.85;1.63;;;;;;;;;;6203976;23;20008;-40
2022/01/20 10:22:17;;;;;;;2.60;1.50;;;;;;;;;;6203180;23;20031;-40
2022/01/20 10:24:56;;;;;;;4.22;1.48;;;;;;;;;;6203304;23;20000;-40
2022/01/20 10:27:21;;;;;;;2.45;0.98;;;;;;;;;;6202888;23;20017;-40
2022/01/20 10:29:54;;;;;;;4.28;1.77;;;;;;;;;;6204106;23;20020;-40
2022/01/20 10:32:19;;;;;;;1.63;1.08;;;;;;;;;;6204048;23;20099;-41
2022/01/20 10:34:44;;;;;;;2.15;1.38;;;;;;;;;;6203726;23;20395;-40
2022/01/20 10:37:17;;;;;;;4.57;1.05;;;;;;;;;;6203229;23;20532;-40
2022/01/20 10:39:44;;;;;;;2.40;1.23;;;;;;;;;;6203337;23;20005;-40
2022/01/20 10:42:14;;;;;;;4.03;2.63;;;;;;;;;;6203253;23;20097;-40
2022/01/20 10:45:00;;;;;;;1.35;0.90;;;;;;;;;;6203153;23;20019;-40
2022/01/20 10:47:29;;;;;;;2.45;1.10;;;;;;;;;;6201640;23;20020;-40
2022/01/20 10:49:56;;;;;;;0.93;0.88;;;;;;;;;;6202599;23;20554;-40
2022/01/20 10:52:23;;;;;;;1.17;1.08;;;;;;;;;;6202312;23;20035;-41
2022/01/20 10:54:49;;;;;;;1.50;1.08;;;;;;;;;;6202346;23;20020;-40
2022/01/20 10:57:16;;;;;;;1.30;1.17;;;;;;;;;;6202730;23;20020;-40
2022/01/20 10:59:49;;;;;;;3.67;1.45;;;;;;;;;;6199273;23;20008;-40
2022/01/20 11:02:16;;;;;;;1.95;1.13;;;;;;;;;;6202651;23;20029;-40
2022/01/20 11:04:41;;;;;;;1.48;1.13;;;;;;;;;;6202281;23;20069;-40
2022/01/20 11:07:07;;;;;;;2.97;1.15;;;;;;;;;;6204320;23;20087;-40
2022/01/20 11:09:35;;;;;;;2.83;1.00;;;;;;;;;;6201855;23;20023;-40
2022/01/20 11:12:01;;;;;;;3.85;1.20;;;;;;;;;;6203558;23;20348;-40
2022/01/20 11:14:27;;;;;;;1.05;1.00;;;;;;;;;;6203072;23;20013;-40
2022/01/20 11:16:52;;;;;;;2.00;1.27;;;;;;;;;;6202914;23;20004;-40
2022/01/20 11:19:21;;;;;;;1.63;0.80;;;;;;;;;;6202753;23;20100;-40
2022/01/20 11:21:47;;;;;;;1.45;1.10;;;;;;;;;;6202850;23;20024;-43
2022/01/20 11:24:23;;;;;;;0.57;0.57;;;;;;;;;;6202985;23;20037;-41
2022/01/20 11:26:49;;;;;;;2.67;1.70;;;;;;;;;;6204603;23;20063;-42
2022/01/20 11:29:16;;;;;;;1.52;0.95;;;;;;;;;;6204983;23;20012;-42
2022/01/20 11:31:41;;;;;;;1.08;0.75;;;;;;;;;;6205271;23;20019;-43
2022/01/20 11:34:14;;;;;;;2.05;0.63;;;;;;;;;;6204983;23;20017;-42
2022/01/20 11:36:39;;;;;;;0.95;0.70;;;;;;;;;;6205188;23;20009;-41
2022/01/20 11:39:05;;;;;;;2.58;0.85;;;;;;;;;;6203284;23;20150;-41
2022/01/20 11:41:40;;;;;;;3.17;1.25;;;;;;;;;;6202425;23;20358;-41
2022/01/20 11:44:13;;;;;;;1.70;0.90;;;;;;;;;;6203948;23;20016;-40
2022/01/20 11:46:40;;;;;;;0.77;0.68;;;;;;;;;;6200373;23;20804;-40
2022/01/20 11:49:08;;;;;;;1.10;0.85;;;;;;;;;;6203033;23;20503;-42
2022/01/20 11:51:44;;;;;;;1.13;0.80;;;;;;;;;;6201738;23;20025;-40
2022/01/20 11:54:10;;;;;;;1.40;0.80;;;;;;;;;;6203757;23;20092;-40
2022/01/20 11:56:39;;;;;;;0.65;0.65;;;;;;;;;;6202360;23;20443;-41
2022/01/20 11:59:06;;;;;;;0.85;0.60;;;;;;;;;;6203119;23;20351;-41
2022/01/20 12:01:52;;;;;;;0.90;0.70;;;;;;;;;;6201752;23;20052;-40
2022/01/20 12:04:36;;;;;;;2.17;0.68;;;;;;;;;;6202766;23;20023;-40
2022/01/20 12:07:01;;;;;;;1.58;1.00;;;;;;;;;;6202031;23;20036;-41
2022/01/20 12:09:31;;;;;;;0.98;0.52;;;;;;;;;;6202585;23;20012;-40
2022/01/20 12:11:56;;;;;;;1.15;0.70;;;;;;;;;;6202247;23;20036;-41
2022/01/20 12:14:35;;;;;;;0.50;0.50;;;;;;;;;;6202201;23;20039;-39
2022/01/20 12:17:02;;;;;;;1.38;0.40;;;;;;;;;;6201426;23;20032;-40
2022/01/20 12:19:28;;;;;;;0.60;0.60;;;;;;;;;;6203102;23;20072;-41
2022/01/20 12:21:53;;;;;;;1.48;0.57;;;;;;;;;;6197861;23;20020;-40
2022/01/20 12:24:19;;;;;;;1.48;1.08;;;;;;;;;;6200188;23;20011;-41
2022/01/20 12:26:44;;;;;;;0.73;0.50;;;;;;;;;;6199851;23;20009;-40
2022/01/20 12:29:10;;;;;;;0.40;0.40;;;;;;;;;;6199326;23;20091;-40
2022/01/20 12:31:50;;;;;;;1.08;0.70;;;;;;;;;;6200715;23;20082;-40
2022/01/20 12:34:15;;;;;;;;;;;;;;;;;;6200999;23;20020;-40
2022/01/20 12:36:40;;;;;;;0.88;0.57;;;;;;;;;;6202428;23;19904;-40
2022/01/20 12:39:06;;;;;;;1.50;0.75;;;;;;;;;;6202179;23;20031;-40
2022/01/20 12:41:31;;;;;;;0.63;0.60;;;;;;;;;;6201396;23;20029;-41
2022/01/20 12:44:05;;;;;;;0.75;0.50;;;;;;;;;;6201915;23;20510;-40
2022/01/20 12:46:36;;;;;;;1.20;0.57;;;;;;;;;;6201911;23;20466;-40
2022/01/20 12:49:04;;;;;;;0.77;0.57;;;;;;;;;;6202586;23;20355;-40
2022/01/20 12:51:40;;;;;;;0.43;0.30;;;;;;;;;;6201587;23;20035;-40
2022/01/20 12:54:13;;;;;;;0.63;0.43;;;;;;;;;;6201966;23;20035;-40
2022/01/20 12:56:44;;;;;;;0.50;0.50;;;;;;;;;;6201426;23;20028;-40
2022/01/20 12:59:09;;;;;;;2.25;0.63;;;;;;;;;;6202288;23;20435;-41
2022/01/20 13:01:42;;;;;;;1.25;0.43;;;;;;;;;;6201198;23;20454;-40
2022/01/20 13:04:09;;;;;;;1.40;0.95;;;;;;;;;;6201541;23;20020;-40
2022/01/20 13:06:35;;;;;;;0.75;0.60;;;;;;;;;;6202256;23;20311;-40
2022/01/20 13:09:06;;;;;;;0.75;0.43;;;;;;;;;;6153277;23;20009;-42
2022/01/20 13:11:40;;;;;;;1.30;0.50;;;;;;;;;;6200326;23;20570;-40
2022/01/20 13:14:06;;;;;;;0.50;0.50;;;;;;;;;;6202073;23;20017;-40
2022/01/20 13:16:34;;;;;;;1.20;0.70;;;;;;;;;;6202074;23;20086;-41
2022/01/20 13:19:01;;;;;;;0.77;0.77;;;;;;;;;;6201647;23;20062;-40
2022/01/20 13:21:36;;;;;;;1.48;0.60;;;;;;;;;;6202185;23;20056;-40
2022/01/20 13:24:03;;;;;;;0.98;0.60;;;;;;;;;;6201224;23;20035;-40
2022/01/20 13:26:28;;;;;;;0.55;0.40;;;;;;;;;;6201625;23;20013;-40
2022/01/20 13:28:57;;;;;;;2.08;0.47;;;;;;;;;;6201205;23;20013;-40
2022/01/20 13:31:23;;;;;;;0.50;0.50;;;;;;;;;;6201634;23;20013;-40
2022/01/20 13:33:49;;;;;;;0.40;0.40;;;;;;;;;;6201478;23;20004;-40
2022/01/20 13:36:14;;;;;;;1.05;0.57;;;;;;;;;;6202048;23;20023;-40
2022/01/20 13:38:45;;;;;;;0.95;0.55;;;;;;;;;;6202897;23;20017;-41
2022/01/20 13:41:12;;;;;;;0.47;0.47;;;;;;;;;;6201126;23;21956;-41
2022/01/20 13:46:59;;;;;;;1.85;0.90;;;;;;;;;;6200842;23;20031;-41
2022/01/20 13:49:25;;;;;;;0.77;0.68;;;;;;;;;;6201141;23;20020;-41
2022/01/20 13:51:59;;;;;;;4.57;1.17;;;;;;;;;;6202757;23;20013;-41
2022/01/20 13:54:34;;;;;;;3.92;0.90;;;;;;;;;;6202996;23;20028;-40
2022/01/20 13:57:00;;;;;;;1.40;0.77;;;;;;;;;;6203631;23;20013;-42
2022/01/20 13:59:25;;;;;;;2.25;0.50;;;;;;;;;;6203679;23;20024;-41
2022/01/20 14:01:50;;;;;;;0.82;0.80;;;;;;;;;;6203760;23;20024;-41
2022/01/20 14:04:15;;;;;;;1.08;0.55;;;;;;;;;;6202894;23;20017;-41
2022/01/20 14:06:41;;;;;;;0.93;0.63;;;;;;;;;;6203854;23;20004;-41
2022/01/20 14:09:06;;;;;;;0.70;0.57;;;;;;;;;;6201985;23;20632;-41
2022/01/20 14:11:31;;;;;;;1.35;0.68;;;;;;;;;;6202357;23;20032;-41
2022/01/20 14:13:56;;;;;;;0.68;0.68;;;;;;;;;;6203483;23;20076;-42
2022/01/20 14:16:22;;;;;;;0.63;0.63;;;;;;;;;;6201300;23;20096;-40
2022/01/20 14:18:56;;;;;;;1.00;0.85;;;;;;;;;;6203407;23;20005;-43
2022/01/20 14:21:21;;;;;;;0.50;0.50;;;;;;;;;;6202550;23;20027;-41
2022/01/20 14:23:46;;;;;;;0.73;0.70;;;;;;;;;;6203452;23;20004;-41
2022/01/20 14:26:16;;;;;;;1.75;0.60;;;;;;;;;;6202735;23;20469;-41
2022/01/20 14:28:41;;;;;;;1.25;0.80;;;;;;;;;;6202929;23;20013;-41
2022/01/20 14:31:06;;;;;;;0.90;0.75;;;;;;;;;;6199347;23;20020;-41
2022/01/20 14:33:32;;;;;;;1.02;0.90;;;;;;;;;;6199463;23;20047;-40
2022/01/20 14:35:57;;;;;;;0.60;0.60;;;;;;;;;;6202742;23;20008;-40
2022/01/20 14:38:23;;;;;;;0.98;0.65;;;;;;;;;;6202237;23;20005;-40
2022/01/20 14:40:48;;;;;;;1.48;0.82;;;;;;;;;;6203982;23;20009;-41
2022/01/20 14:43:14;;;;;;;2.33;0.70;;;;;;;;;;6201851;23;20024;-40
2022/01/20 14:45:39;;;;;;;1.02;0.65;;;;;;;;;;6202922;23;20012;-40
2022/01/20 14:48:04;;;;;;;1.27;0.88;;;;;;;;;;6202643;23;20020;-41
2022/01/20 14:50:30;;;;;;;2.20;0.73;;;;;;;;;;6200344;23;20062;-41
2022/01/20 14:52:56;;;;;;;0.52;0.50;;;;;;;;;;6202860;23;20084;-40
2022/01/20 14:55:22;;;;;;;0.73;0.73;;;;;;;;;;6202536;23;20017;-41
2022/01/20 14:57:47;;;;;;;0.73;0.57;;;;;;;;;;6202165;23;20020;-40
2022/01/20 15:00:15;;;;;;;1.75;0.82;;;;;;;;;;6202444;23;20020;-41
2022/01/20 15:02:45;;;;;;;1.15;0.77;;;;;;;;;;6201667;23;20013;-41
2022/01/20 15:05:10;;;;;;;0.60;0.50;;;;;;;;;;6202687;23;20021;-41
2022/01/20 15:07:36;;;;;;;2.05;0.60;;;;;;;;;;6202103;23;20503;-40
2022/01/20 15:10:02;;;;;;;0.60;0.52;;;;;;;;;;6203086;23;20104;-40
2022/01/20 15:12:27;;;;;;;1.58;0.82;;;;;;;;;;6202299;23;20316;-40
2022/01/20 15:14:52;;;;;;;0.57;0.57;;;;;;;;;;6203693;23;20075;-40
2022/01/20 15:17:18;;;;;;;2.28;0.95;;;;;;;;;;6201137;23;20012;-40
2022/01/20 15:19:43;;;;;;;1.25;0.60;;;;;;;;;;6203443;23;20059;-40
2022/01/20 15:22:08;;;;;;;0.88;0.60;;;;;;;;;;6200585;23;20023;-40
2022/01/20 15:24:35;;;;;;;0.60;0.60;;;;;;;;;;6202227;23;20108;-40
2022/01/20 15:27:01;;;;;;;1.48;0.75;;;;;;;;;;6202312;23;20024;-42
2022/01/20 15:29:26;;;;;;;0.60;0.60;;;;;;;;;;6202739;23;20618;-40
2022/01/20 15:31:51;;;;;;;0.90;0.88;;;;;;;;;;6203211;23;20009;-42
2022/01/20 15:34:17;;;;;;;0.60;0.60;;;;;;;;;;6202095;23;20012;-41
2022/01/20 15:36:42;;;;;;;2.00;1.23;;;;;;;;;;6202693;23;20429;-42
2022/01/20 15:39:08;;;;;;;1.23;1.13;;;;;;;;;;6205518;23;20255;-44
2022/01/20 15:41:34;;;;;;;0.52;0.45;;;;;;;;;;6204218;23;20043;-41
2022/01/20 15:43:59;;;;;;;1.25;0.60;;;;;;;;;;6207018;23;20525;-41